Time;durP1;ratioP1;P1;durP2;ratioP2;P2;SDS_P1;SDS_P2;PMS_P1;PMS_P2;Temp;Humidity;BMP_temperature;BMP_pressure;BME280_temperature;BME280_humidity;BME280_pressure;Samples;Min_cycle;Max_cycle;Signal;HPM_P1;HPM_P2
2021/10/19 00:02:04;;;;;;;32.80;24.23;;;;;;;5.72;100.00;101290.48;1680117;84;21018;-86
2021/10/19 00:04:34;;;;;;;38.58;24.85;;;;;;;5.72;100.00;101291.77;1655241;84;21070;-88
2021/10/19 00:07:02;;;;;;;38.23;26.73;;;;;;;5.72;100.00;101284.48;1662529;84;21062;-88
2021/10/19 00:09:32;;;;;;;37.03;24.47;;;;;;;5.74;100.00;101285.23;1680103;84;21054;-88
2021/10/19 00:11:58;;;;;;;34.20;25.05;;;;;;;5.76;100.00;101287.31;1680336;84;21031;-87
2021/10/19 00:14:27;;;;;;;37.05;25.35;;;;;;;5.81;100.00;101278.89;1680567;84;21105;-86
2021/10/19 00:16:54;;;;;;;37.70;24.90;;;;;;;5.85;100.00;101274.80;1680173;83;21058;-86
2021/10/19 00:19:21;;;;;;;35.83;25.17;;;;;;;5.90;100.00;101277.19;1682152;83;21159;-86
2021/10/19 00:21:49;;;;;;;36.60;24.67;;;;;;;5.94;100.00;101267.11;1684400;83;21427;-85
2021/10/19 00:24:16;;;;;;;32.28;24.52;;;;;;;5.99;100.00;101266.47;1680533;83;21024;-87
2021/10/19 00:26:43;;;;;;;35.48;24.85;;;;;;;6.04;100.00;101265.44;1678833;84;21195;-86
2021/10/19 00:29:10;;;;;;;29.12;22.32;;;;;;;6.08;100.00;101261.78;1678895;84;21018;-85
2021/10/19 00:31:37;;;;;;;35.83;25.62;;;;;;;6.11;100.00;101267.66;1649784;84;21087;-87
2021/10/19 00:34:04;;;;;;;37.25;25.20;;;;;;;6.13;100.00;101266.28;1678970;84;21582;-87
2021/10/19 00:36:31;;;;;;;38.63;26.60;;;;;;;6.13;100.00;101264.55;1650481;85;21053;-85
2021/10/19 00:38:58;;;;;;;32.58;24.27;;;;;;;6.13;100.00;101268.87;1678664;84;21598;-88
2021/10/19 00:41:25;;;;;;;37.75;26.48;;;;;;;6.15;100.00;101267.06;1649472;84;21105;-86
2021/10/19 00:43:53;;;;;;;31.45;23.42;;;;;;;6.17;100.00;101265.72;1678649;84;21775;-85
2021/10/19 00:46:20;;;;;;;32.90;24.23;;;;;;;6.19;100.00;101260.84;1649640;84;21021;-85
2021/10/19 00:48:47;;;;;;;31.70;24.87;;;;;;;6.19;100.00;101260.84;1649686;84;21033;-85
2021/10/19 00:51:17;;;;;;;31.77;23.92;;;;;;;6.19;100.00;101260.84;1678975;84;21037;-87
2021/10/19 00:53:44;;;;;;;33.35;23.95;;;;;;;6.18;100.00;101259.17;1650027;85;21068;-86
2021/10/19 00:56:12;;;;;;;31.07;24.47;;;;;;;6.18;100.00;101258.31;1679139;84;21117;-86
2021/10/19 00:58:41;;;;;;;35.15;25.25;;;;;;;6.16;100.00;101254.52;1649729;84;21144;-86
2021/10/19 01:01:09;;;;;;;29.85;23.80;;;;;;;6.14;100.00;101258.47;1679342;84;22215;-86
2021/10/19 01:03:40;;;;;;;36.10;25.40;;;;;;;6.14;100.00;101254.59;1679003;84;21538;-85
2021/10/19 01:06:09;;;;;;;30.48;23.75;;;;;;;6.16;100.00;101263.56;1680039;84;20986;-86
2021/10/19 01:08:37;;;;;;;38.20;25.23;;;;;;;6.16;100.00;101264.86;1651349;85;21790;-86
2021/10/19 01:11:06;;;;;;;34.45;23.57;;;;;;;6.17;100.00;101261.84;1630866;86;21014;-86
2021/10/19 01:13:35;;;;;;;31.00;23.53;;;;;;;6.15;100.00;101261.89;1630548;86;21051;-86
2021/10/19 01:16:11;;;;;;;34.83;24.65;;;;;;;6.17;100.00;101263.13;1593836;86;21416;-86
2021/10/19 01:18:40;;;;;;;36.08;22.42;;;;;;;6.15;100.00;101266.62;1675491;84;21029;-86
2021/10/19 01:21:08;;;;;;;29.63;23.25;;;;;;;6.15;100.00;101264.47;1675359;84;21448;-87
2021/10/19 01:23:39;;;;;;;33.48;25.10;;;;;;;6.14;100.00;101267.96;1674813;84;21034;-86
2021/10/19 01:26:10;;;;;;;33.02;24.40;;;;;;;6.13;100.00;101267.58;1674827;84;21047;-87
2021/10/19 01:28:45;;;;;;;35.00;24.65;;;;;;;6.10;100.00;101265.15;1674149;84;21521;-86
2021/10/19 01:31:13;;;;;;;27.70;23.00;;;;;;;6.09;100.00;101267.34;1673797;84;20997;-85
2021/10/19 01:33:40;;;;;;;;;;;;;;;6.08;100.00;101267.81;1677401;84;21497;-87
2021/10/19 01:36:09;;;;;;;32.70;23.22;;;;;;;6.09;100.00;101264.76;1675032;84;20148;-87
2021/10/19 01:38:38;;;;;;;30.00;23.75;;;;;;;6.06;100.00;101268.77;1656327;84;21014;-86
2021/10/19 01:41:05;;;;;;;35.50;23.85;;;;;;;6.06;100.00;101261.02;1674884;84;21524;-88
2021/10/19 01:43:32;;;;;;;36.83;23.10;;;;;;;6.06;100.00;101266.18;1675698;84;20982;-89
2021/10/19 01:46:02;;;;;;;32.63;23.90;;;;;;;6.07;100.00;101267.42;1675047;84;21792;-89
2021/10/19 01:48:32;;;;;;;27.82;22.80;;;;;;;6.06;100.00;101264.89;1674540;84;21009;-86
2021/10/19 01:50:59;;;;;;;28.67;21.90;;;;;;;6.06;100.00;101267.04;1675017;84;21511;-87
2021/10/19 01:53:26;;;;;;;31.68;23.25;;;;;;;6.06;100.00;101260.58;1674798;84;21452;-86
2021/10/19 01:55:53;;;;;;;29.42;23.02;;;;;;;6.06;100.00;101258.42;1674938;84;20982;-86
2021/10/19 01:58:24;;;;;;;29.63;22.37;;;;;;;6.06;100.00;101259.28;1675312;84;21439;-86
2021/10/19 02:00:54;;;;;;;28.02;22.30;;;;;;;6.06;100.00;101266.18;1674694;84;21034;-86
2021/10/19 02:03:24;;;;;;;27.15;21.07;;;;;;;6.03;100.00;101265.05;1655615;85;20985;-86
2021/10/19 02:05:51;;;;;;;27.77;21.68;;;;;;;6.02;100.00;101266.77;1675240;84;20998;-86
2021/10/19 02:08:20;;;;;;;33.08;23.47;;;;;;;6.03;100.00;101266.34;1674497;84;20997;-85
2021/10/19 02:10:48;;;;;;;37.78;24.50;;;;;;;6.03;100.00;101274.92;1676995;84;21493;-88
2021/10/19 02:13:15;;;;;;;32.20;22.77;;;;;;;6.03;100.00;101275.39;1675708;84;21700;-88
2021/10/19 02:15:43;;;;;;;28.95;23.60;;;;;;;6.01;100.00;101283.19;1675250;84;21018;-91
2021/10/19 02:18:11;;;;;;;33.60;24.07;;;;;;;5.98;100.00;101275.09;1675416;84;21060;-92
2021/10/19 02:20:39;;;;;;;33.28;23.55;;;;;;;6.00;100.00;101278.49;1675427;84;20994;-88
2021/10/19 02:23:09;;;;;;;36.50;24.02;;;;;;;6.03;100.00;101276.68;1675359;84;21841;-86
2021/10/19 02:25:36;;;;;;;31.55;23.45;;;;;;;6.03;100.00;101277.98;1682188;84;21531;-86
2021/10/19 02:28:04;;;;;;;30.20;23.25;;;;;;;6.03;100.00;101278.80;1682372;83;21243;-87
2021/10/19 02:30:32;;;;;;;31.40;22.62;;;;;;;6.06;100.00;101286.86;1682270;83;21206;-86
2021/10/19 02:33:00;;;;;;;41.73;24.02;;;;;;;6.08;100.00;101282.47;1662526;85;21001;-87
2021/10/19 02:35:27;;;;;;;36.17;23.90;;;;;;;6.11;100.00;101284.93;1680534;84;21920;-85
2021/10/19 02:37:54;;;;;;;30.80;23.70;;;;;;;6.14;100.00;101287.36;1681899;83;20962;-86
2021/10/19 02:40:22;;;;;;;35.17;23.98;;;;;;;6.16;100.00;101290.72;1682125;83;20978;-85
2021/10/19 02:42:49;;;;;;;40.17;24.02;;;;;;;6.16;100.00;101281.67;1682419;85;20997;-87
2021/10/19 02:45:20;;;;;;;28.60;23.02;;;;;;;6.17;100.00;101287.23;1662229;85;21013;-85
2021/10/19 02:47:47;;;;;;;31.85;24.57;;;;;;;6.17;100.00;101279.94;1662952;85;21165;-87
2021/10/19 02:50:15;;;;;;;31.85;24.18;;;;;;;6.14;100.00;101283.48;1681965;83;20989;-85
2021/10/19 02:52:42;;;;;;;30.27;23.52;;;;;;;6.10;100.00;101284.08;1663487;84;21034;-86
2021/10/19 02:55:12;;;;;;;35.08;25.17;;;;;;;6.09;100.00;101282.39;1661765;84;21041;-87
2021/10/19 02:57:39;;;;;;;37.43;27.70;;;;;;;6.10;100.00;101291.00;1682285;83;21018;-86
2021/10/19 03:00:09;;;;;;;31.23;24.45;;;;;;;6.09;100.00;101297.08;1682666;84;21466;-86
2021/10/19 03:02:36;;;;;;;34.60;24.12;;;;;;;6.07;100.00;101301.04;1682396;83;20997;-85
2021/10/19 03:05:04;;;;;;;30.15;24.43;;;;;;;6.07;100.00;101302.77;1682762;83;21020;-85
2021/10/19 03:07:33;;;;;;;31.02;23.02;;;;;;;6.03;100.00;101304.66;1662559;84;21029;-90
2021/10/19 03:10:00;;;;;;;34.90;24.23;;;;;;;6.01;100.00;101302.58;1662953;83;21050;-85
2021/10/19 03:12:29;;;;;;;31.17;23.00;;;;;;;6.01;100.00;101292.24;1681541;84;21002;-85
2021/10/19 03:14:56;;;;;;;30.57;25.20;;;;;;;6.02;100.00;101298.27;1661230;84;20974;-86
2021/10/19 03:17:23;;;;;;;37.93;25.43;;;;;;;6.02;100.00;101295.69;1681955;84;20962;-86
2021/10/19 03:19:50;;;;;;;55.28;28.02;;;;;;;6.01;100.00;101300.00;1662865;84;21042;-83
2021/10/19 03:22:17;;;;;;;61.95;28.80;;;;;;;6.03;100.00;101296.90;1662780;85;21543;-84
2021/10/19 03:24:44;;;;;;;37.83;25.92;;;;;;;6.49;100.00;101295.24;1662638;84;21061;-84
2021/10/19 03:27:11;;;;;;;47.00;28.77;;;;;;;6.87;100.00;101302.91;1681029;84;20970;-85
2021/10/19 03:29:38;;;;;;;41.48;28.10;;;;;;;7.09;100.00;101297.53;1682536;83;20973;-84
2021/10/19 03:32:06;;;;;;;40.90;29.85;;;;;;;7.26;100.00;101307.51;1682336;83;20994;-84
2021/10/19 03:34:33;;;;;;;35.60;28.65;;;;;;;7.31;100.00;101305.98;1682734;83;21025;-84
2021/10/19 03:37:00;;;;;;;41.35;29.45;;;;;;;7.24;100.00;101311.48;1678328;84;21144;-87
2021/10/19 03:39:27;;;;;;;38.25;27.27;;;;;;;7.17;100.00;101318.32;1677692;84;21052;-88
2021/10/19 03:41:54;;;;;;;34.45;27.52;;;;;;;7.07;100.00;101316.18;1680688;83;21001;-88
2021/10/19 03:44:23;;;;;;;39.92;27.45;;;;;;;6.87;100.00;101319.74;1682468;83;21430;-88
2021/10/19 03:46:50;;;;;;;39.00;26.90;;;;;;;6.78;100.00;101323.62;1682695;83;21502;-88
2021/10/19 03:49:18;;;;;;;39.03;26.55;;;;;;;6.73;100.00;101324.28;1662979;83;21991;-88
2021/10/19 03:51:45;;;;;;;37.20;27.25;;;;;;;6.66;100.00;101325.48;1681645;83;21060;-88
2021/10/19 03:54:12;;;;;;;59.40;27.35;;;;;;;6.65;100.00;101329.45;1659507;85;21487;-88
2021/10/19 03:56:39;;;;;;;43.17;28.52;;;;;;;6.57;100.00;101328.06;1658814;84;21019;-88
2021/10/19 03:59:06;;;;;;;41.50;26.70;;;;;;;6.52;100.00;101330.04;1656993;85;21444;-89
2021/10/19 04:01:33;;;;;;;41.25;27.85;;;;;;;6.51;100.00;101338.71;1675258;84;21139;-88
2021/10/19 04:04:00;;;;;;;40.98;28.15;;;;;;;6.45;100.00;101333.80;1662628;83;21033;-86
2021/10/19 04:06:29;;;;;;;38.78;28.15;;;;;;;6.37;100.00;101335.45;1679972;83;21071;-87
2021/10/19 04:08:56;;;;;;;40.60;28.45;;;;;;;6.29;100.00;101342.73;1677560;84;21074;-88
2021/10/19 04:11:23;;;;;;;35.65;27.87;;;;;;;6.28;100.00;101342.34;1658367;85;21498;-88
2021/10/19 04:13:50;;;;;;;34.48;28.17;;;;;;;6.30;100.00;101345.70;1658069;84;21109;-85
2021/10/19 04:16:17;;;;;;;39.20;29.05;;;;;;;6.28;100.00;101343.63;1677461;83;21489;-88
2021/10/19 04:18:44;;;;;;;50.05;31.15;;;;;;;6.27;100.00;101346.69;1677686;83;21531;-87
2021/10/19 04:21:12;;;;;;;40.48;27.85;;;;;;;6.31;100.00;101347.39;1678526;83;21526;-88
2021/10/19 04:23:40;;;;;;;39.50;29.85;;;;;;;6.34;100.00;101350.28;1662649;84;21054;-87
2021/10/19 04:26:07;;;;;;;41.13;29.60;;;;;;;6.30;100.00;101350.41;1675103;84;21131;-87
2021/10/19 04:28:35;;;;;;;40.38;30.17;;;;;;;6.23;100.00;101355.48;1676459;84;21796;-87
2021/10/19 04:31:02;;;;;;;46.35;30.90;;;;;;;6.22;100.00;101357.67;1655449;85;20990;-87
2021/10/19 04:33:30;;;;;;;39.20;29.30;;;;;;;6.22;100.00;101358.14;1674373;84;21034;-87
2021/10/19 04:35:57;;;;;;;39.25;28.85;;;;;;;6.21;100.00;101360.34;1675465;84;20997;-86
2021/10/19 04:38:25;;;;;;;38.48;27.07;;;;;;;6.22;100.00;101364.14;1675118;84;21149;-84
2021/10/19 04:40:53;;;;;;;36.53;26.87;;;;;;;6.19;100.00;101363.44;1675011;84;21006;-86
2021/10/19 04:43:19;;;;;;;35.10;26.05;;;;;;;6.11;100.00;101376.73;1655443;84;21022;-86
2021/10/19 04:45:47;;;;;;;32.15;24.12;;;;;;;6.02;100.00;101384.88;1675163;84;21558;-85
2021/10/19 04:48:14;;;;;;;33.83;22.77;;;;;;;5.95;100.00;101395.47;1623700;84;21017;-84
2021/10/19 04:50:41;;;;;;;30.17;22.98;;;;;;;5.90;100.00;101392.69;1675264;84;21778;-84
2021/10/19 04:53:09;;;;;;;28.73;22.42;;;;;;;5.85;100.00;101400.17;1655155;84;21026;-84
2021/10/19 04:55:36;;;;;;;32.15;22.95;;;;;;;5.82;100.00;101399.47;1674952;84;21029;-84
2021/10/19 04:58:03;;;;;;;31.05;22.02;;;;;;;5.79;100.00;101409.48;1675758;83;21622;-86
2021/10/19 05:00:31;;;;;;;29.20;21.60;;;;;;;5.77;100.00;101424.21;1675383;84;21026;-83
2021/10/19 05:03:00;;;;;;;31.17;21.40;;;;;;;5.73;100.00;101428.30;1676140;84;21475;-84
2021/10/19 05:05:27;;;;;;;27.60;19.85;;;;;;;5.68;100.00;101442.71;1675369;84;20993;-83
2021/10/19 05:07:54;;;;;;;29.25;21.80;;;;;;;5.63;100.00;101439.02;1675626;84;21578;-85
2021/10/19 05:10:21;;;;;;;26.05;19.48;;;;;;;5.60;100.00;101440.42;1674834;84;21467;-84
2021/10/19 05:12:49;;;;;;;23.98;18.37;;;;;;;5.60;100.00;101439.13;1674868;84;21005;-86
2021/10/19 05:15:18;;;;;;;27.22;18.67;;;;;;;5.61;100.00;101436.11;1650696;84;21121;-86
2021/10/19 05:17:45;;;;;;;21.65;17.10;;;;;;;5.59;100.00;101451.66;1675135;84;20990;-86
2021/10/19 05:20:12;;;;;;;20.08;15.70;;;;;;;5.61;100.00;101453.73;1675409;84;21030;-86
2021/10/19 05:22:39;;;;;;;25.10;17.35;;;;;;;5.63;100.00;101440.31;1655962;85;20986;-88
2021/10/19 05:25:09;;;;;;;19.70;15.78;;;;;;;5.68;100.00;101420.28;1677590;84;20994;-90
2021/10/19 05:27:39;;;;;;;21.12;15.80;;;;;;;5.79;100.00;101436.63;1660916;84;25233;-90
2021/10/19 05:30:08;;;;;;;20.75;16.40;;;;;;;5.85;100.00;101447.16;1680252;84;21130;-89
2021/10/19 05:32:36;;;;;;;24.82;17.40;;;;;;;5.84;100.00;101448.06;1680150;84;21029;-89
2021/10/19 05:35:04;;;;;;;22.00;17.02;;;;;;;5.91;100.00;101454.66;1680357;84;21493;-89
2021/10/19 05:37:31;;;;;;;23.45;16.95;;;;;;;6.00;100.00;101454.30;1680127;84;21001;-88
2021/10/19 05:39:59;;;;;;;24.63;17.15;;;;;;;6.10;100.00;101448.74;1660324;84;21882;-89
2021/10/19 05:42:26;;;;;;;21.75;15.32;;;;;;;6.22;100.00;101452.55;1680298;84;21049;-90
2021/10/19 05:44:53;;;;;;;22.00;15.95;;;;;;;6.34;100.00;101453.76;1660338;85;21527;-89
2021/10/19 05:47:20;;;;;;;22.17;16.17;;;;;;;6.44;100.00;101462.80;1679922;84;21476;-89
2021/10/19 05:49:47;;;;;;;23.27;16.57;;;;;;;6.55;100.00;101460.56;1680373;84;20978;-89
2021/10/19 05:52:14;;;;;;;18.57;15.93;;;;;;;6.65;100.00;101473.92;1680369;84;21962;-89
2021/10/19 05:54:41;;;;;;;20.50;15.72;;;;;;;6.71;100.00;101480.58;1679556;84;21025;-88
2021/10/19 05:57:08;;;;;;;22.05;14.90;;;;;;;6.75;100.00;101476.95;1680266;84;21033;-88
2021/10/19 05:59:35;;;;;;;23.73;14.98;;;;;;;6.76;100.00;101483.81;1680480;84;21041;-88
2021/10/19 06:02:03;;;;;;;23.98;15.15;;;;;;;6.80;100.00;101481.45;1680395;84;21049;-88
2021/10/19 06:04:30;;;;;;;20.92;14.87;;;;;;;6.82;100.00;101486.12;1680424;84;21091;-88
2021/10/19 06:07:00;;;;;;;20.05;15.63;;;;;;;6.87;100.00;101488.50;1660211;84;21034;-86
2021/10/19 06:09:28;;;;;;;18.95;14.45;;;;;;;6.86;100.00;101495.41;1657544;85;21029;-88
2021/10/19 06:11:56;;;;;;;19.17;14.83;;;;;;;6.87;100.00;101500.98;1659772;84;21033;-86
2021/10/19 06:14:24;;;;;;;17.15;14.68;;;;;;;6.84;100.00;101511.49;1680767;84;21487;-88
2021/10/19 06:16:52;;;;;;;21.93;15.30;;;;;;;6.73;100.00;101508.53;1680984;83;21692;-86
2021/10/19 06:19:19;;;;;;;16.97;14.50;;;;;;;6.74;100.00;101507.63;1688750;82;21084;-87
2021/10/19 06:21:47;;;;;;;18.67;14.33;;;;;;;6.73;100.00;101513.24;1679746;84;21038;-90
2021/10/19 06:24:14;;;;;;;17.73;14.35;;;;;;;6.70;100.00;101513.39;1679953;84;21037;-89
2021/10/19 06:26:41;;;;;;;17.65;14.70;;;;;;;6.68;100.00;101510.50;1677146;84;21060;-88
2021/10/19 06:29:11;;;;;;;16.40;14.53;;;;;;;6.65;100.00;101509.33;1658357;85;21032;-87
2021/10/19 06:31:39;;;;;;;16.95;14.60;;;;;;;6.73;100.00;101521.01;1678098;84;21000;-87
2021/10/19 06:34:06;;;;;;;14.95;12.93;;;;;;;6.75;100.00;101526.14;1658431;85;21044;-86
2021/10/19 06:36:34;;;;;;;14.53;12.28;;;;;;;6.71;100.00;101527.17;1678159;84;20997;-87
2021/10/19 06:39:02;;;;;;;16.52;13.10;;;;;;;6.68;100.00;101524.73;1677751;84;21482;-86
2021/10/19 06:41:31;;;;;;;14.18;10.95;;;;;;;6.70;100.00;101537.12;1678228;84;22000;-85
2021/10/19 06:44:00;;;;;;;16.75;11.70;;;;;;;6.71;100.00;101533.64;1678107;84;21012;-85
2021/10/19 06:46:27;;;;;;;15.40;11.53;;;;;;;6.65;100.00;101537.80;1658474;84;21466;-85
2021/10/19 06:48:54;;;;;;;19.35;13.75;;;;;;;6.54;100.00;101540.39;1678005;84;20992;-84
2021/10/19 06:51:22;;;;;;;21.85;12.58;;;;;;;6.52;100.00;101535.76;1660949;85;21061;-85
2021/10/19 06:53:49;;;;;;;18.73;14.73;;;;;;;6.55;100.00;101540.78;1681777;83;21168;-85
2021/10/19 06:56:16;;;;;;;13.98;10.82;;;;;;;6.59;100.00;101537.17;1682016;83;20966;-85
2021/10/19 06:58:44;;;;;;;13.10;8.33;;;;;;;6.66;100.00;101540.30;1681549;83;21017;-85
2021/10/19 07:01:11;;;;;;;10.23;7.00;;;;;;;6.67;100.00;101551.52;1682205;83;20997;-85
2021/10/19 07:03:38;;;;;;;8.08;6.00;;;;;;;6.63;100.00;101550.34;1682260;83;21037;-85
2021/10/19 07:06:05;;;;;;;8.15;4.25;;;;;;;6.59;100.00;101549.25;1682186;83;21075;-85
2021/10/19 07:08:36;;;;;;;5.35;4.33;;;;;;;6.51;100.00;101545.72;1684065;82;20965;-85
2021/10/19 07:11:04;;;;;;;5.80;4.62;;;;;;;6.42;100.00;101543.05;1705972;82;21009;-85
2021/10/19 07:13:32;;;;;;;6.62;4.90;;;;;;;6.38;100.00;101551.01;1701495;83;21566;-84
2021/10/19 07:15:59;;;;;;;7.03;4.92;;;;;;;6.40;100.00;101553.95;1706563;82;21044;-85
2021/10/19 07:18:26;;;;;;;5.90;5.30;;;;;;;6.42;100.00;101558.58;1702156;82;22199;-86
2021/10/19 07:20:54;;;;;;;6.60;5.37;;;;;;;6.41;100.00;101565.95;1682043;83;21473;-85
2021/10/19 07:23:33;;;;;;;9.15;6.25;;;;;;;6.40;100.00;101564.73;1681340;83;21926;-87
2021/10/19 07:26:00;;;;;;;7.47;5.25;;;;;;;6.33;100.00;101562.02;1682458;84;21022;-87
2021/10/19 07:28:27;;;;;;;9.10;6.20;;;;;;;6.26;100.00;101562.28;1681343;83;21006;-86
2021/10/19 07:30:54;;;;;;;7.25;6.17;;;;;;;6.25;100.00;101564.94;1682456;84;21119;-86
2021/10/19 07:33:23;;;;;;;9.70;7.37;;;;;;;6.25;100.00;101565.77;1682170;83;21032;-84
2021/10/19 07:35:50;;;;;;;12.18;7.30;;;;;;;6.26;100.00;101560.98;1680320;84;21035;-85
2021/10/19 07:38:17;;;;;;;8.75;7.55;;;;;;;6.30;100.00;101563.81;1679344;84;21031;-85
2021/10/19 07:40:45;;;;;;;9.18;7.22;;;;;;;6.32;100.00;101570.24;1682099;83;21482;-85
2021/10/19 07:43:12;;;;;;;9.83;7.58;;;;;;;6.31;100.00;101564.67;1682195;83;21140;-83
2021/10/19 07:45:39;;;;;;;10.75;7.83;;;;;;;6.34;100.00;101564.53;1682050;83;21084;-86
2021/10/19 07:48:07;;;;;;;9.60;7.42;;;;;;;6.37;100.00;101564.88;1662642;85;21021;-80
2021/10/19 07:50:38;;;;;;;9.68;7.65;;;;;;;6.45;100.00;101565.36;1681123;83;37821;-86
2021/10/19 07:53:05;;;;;;;10.70;7.67;;;;;;;6.63;100.00;101568.47;1682602;83;20981;-86
2021/10/19 07:55:33;;;;;;;8.95;6.92;;;;;;;6.80;100.00;101560.41;1682320;83;21154;-88
2021/10/19 07:58:00;;;;;;;8.83;6.85;;;;;;;6.97;100.00;101565.30;1682311;85;21630;-85
2021/10/19 08:00:29;;;;;;;8.95;6.65;;;;;;;7.09;100.00;101563.00;1682445;85;21627;-88
2021/10/19 08:02:58;;;;;;;7.30;6.45;;;;;;;7.25;100.00;101562.30;1682776;83;21006;-86
2021/10/19 08:05:29;;;;;;;9.90;7.20;;;;;;;7.45;100.00;101561.84;1662357;85;21033;-86
2021/10/19 08:08:11;;;;;;;9.88;6.35;;;;;;;7.61;100.00;101560.66;1681425;84;21135;-85
2021/10/19 08:10:43;;;;;;;8.40;5.80;;;;;;;7.74;100.00;101566.48;1682430;83;21025;-87
2021/10/19 08:13:11;;;;;;;8.08;6.08;;;;;;;7.79;100.00;101566.27;1691812;83;21498;-84
2021/10/19 08:15:39;;;;;;;9.78;6.45;;;;;;;7.83;100.00;101569.08;1682359;84;21439;-89
2021/10/19 08:18:08;;;;;;;7.78;6.45;;;;;;;7.78;100.00;101572.36;1663310;83;21008;-89
2021/10/19 08:20:36;;;;;;;8.10;5.70;;;;;;;7.76;100.00;101572.87;1682256;84;21496;-89
2021/10/19 08:23:06;;;;;;;6.72;5.00;;;;;;;7.85;100.00;101580.22;1681734;83;20990;-89
2021/10/19 08:25:34;;;;;;;6.95;5.40;;;;;;;8.00;100.00;101576.49;1662702;85;21053;-89
2021/10/19 08:28:01;;;;;;;7.05;4.75;;;;;;;8.13;100.00;101581.45;1680214;84;21001;-87
2021/10/19 08:30:28;;;;;;;8.35;5.92;;;;;;;8.28;100.00;101575.14;1680137;84;21542;-90
2021/10/19 08:32:56;;;;;;;7.10;5.42;;;;;;;8.44;100.00;101582.98;1680393;82;21167;-90
2021/10/19 08:35:24;;;;;;;4.87;4.37;;;;;;;8.55;100.00;101587.21;1679657;83;21487;-91
2021/10/19 08:37:53;;;;;;;5.28;3.50;;;;;;;8.65;100.00;101582.37;1659130;85;21140;-89
2021/10/19 08:40:21;;;;;;;5.30;3.80;;;;;;;8.77;100.00;101581.73;1680186;84;21072;-89
2021/10/19 08:42:52;;;;;;;4.08;3.05;;;;;;;8.91;100.00;101584.91;1679042;83;21547;-91
2021/10/19 08:45:20;;;;;;;5.60;2.92;;;;;;;9.00;100.00;101575.34;1678579;84;21807;-89
2021/10/19 08:47:59;;;;;;;;;;;;;;;;;;;;;
2021/10/19 08:50:21;;;;;;;3.75;2.02;;;;;;;9.01;100.00;101591.78;1679672;84;21039;-90
2021/10/19 08:52:49;;;;;;;3.00;2.40;;;;;;;9.03;100.00;101583.42;1660133;85;21490;-88
2021/10/19 08:55:16;;;;;;;2.00;1.80;;;;;;;9.12;100.00;101589.91;1679481;84;21029;-89
2021/10/19 08:57:43;;;;;;;4.30;2.25;;;;;;;9.13;100.00;101583.31;1680220;84;21494;-87
2021/10/19 09:00:12;;;;;;;4.50;2.65;;;;;;;9.20;100.00;101594.67;1679568;84;21029;-94
2021/10/19 09:02:48;;;;;;;3.33;2.50;;;;;;;9.14;100.00;101591.49;1660918;85;21719;-93
2021/10/19 09:05:28;;;;;;;2.60;2.20;;;;;;;9.09;100.00;101594.78;1679811;84;21014;-94
2021/10/19 09:08:11;;;;;;;2.75;2.20;;;;;;;9.15;100.00;101585.82;1660776;85;21522;-90
2021/10/19 09:10:41;;;;;;;3.15;2.40;;;;;;;9.18;100.00;101586.97;1662705;85;21954;-94
2021/10/19 09:13:15;;;;;;;7.15;2.70;;;;;;;9.23;100.00;101589.33;1680314;84;21534;-93
2021/10/19 09:15:46;;;;;;;3.12;2.22;;;;;;;9.38;100.00;101587.19;1680203;84;21590;-94
2021/10/19 09:18:18;;;;;;;3.40;2.50;;;;;;;9.40;100.00;101593.59;1680540;84;20935;-96
2021/10/19 09:20:50;;;;;;;;;;;;;;;9.25;100.00;101590.91;1682936;84;21050;-93
2021/10/19 09:23:21;;;;;;;3.67;2.98;;;;;;;9.29;100.00;101588.98;1678614;84;20729;-92
2021/10/19 09:25:51;;;;;;;4.47;2.30;;;;;;;9.38;100.00;101585.03;1679468;84;20981;-94
2021/10/19 09:28:39;;;;;;;3.85;2.50;;;;;;;9.34;100.00;101589.56;1680528;84;21692;-93
2021/10/19 09:31:07;;;;;;;3.60;2.80;;;;;;;9.11;100.00;101585.63;1680386;84;21578;-90
2021/10/19 09:33:35;;;;;;;5.65;2.80;;;;;;;8.86;100.00;101594.71;1679539;84;21037;-93
2021/10/19 09:36:03;;;;;;;2.70;2.50;;;;;;;8.88;100.00;101586.83;1680064;84;21471;-95
2021/10/19 09:38:30;;;;;;;3.10;2.52;;;;;;;9.07;100.00;101583.66;1678277;84;21029;-92
2021/10/19 09:40:59;;;;;;;3.35;2.30;;;;;;;9.34;100.00;101592.16;1660376;84;21045;-94
2021/10/19 09:43:32;;;;;;;3.08;2.20;;;;;;;9.41;100.00;101582.28;1676982;84;20985;-94
2021/10/19 09:46:01;;;;;;;4.95;2.37;;;;;;;9.30;100.00;101588.06;1679298;84;20986;-89
2021/10/19 09:48:33;;;;;;;3.25;2.45;;;;;;;9.07;90.64;101584.95;1680077;84;21109;-94
2021/10/19 09:51:03;;;;;;;4.70;2.35;;;;;;;8.84;96.42;101589.61;1680415;84;20989;-95
2021/10/19 09:53:35;;;;;;;4.10;2.60;;;;;;;8.82;100.00;101599.23;1679571;84;21050;-92
2021/10/19 09:56:06;;;;;;;2.85;2.40;;;;;;;8.94;100.00;101580.00;1680291;84;21486;-93
2021/10/19 09:58:35;;;;;;;3.47;2.47;;;;;;;9.11;100.00;101587.75;1633036;86;21528;-93
2021/10/19 10:01:04;;;;;;;3.60;2.33;;;;;;;9.32;100.00;101582.33;1657665;86;21135;-95
2021/10/19 10:03:32;;;;;;;3.40;2.20;;;;;;;9.53;100.00;101585.97;1657498;86;21039;-94
2021/10/19 10:06:01;;;;;;;2.45;2.15;;;;;;;9.54;79.44;101599.34;1636519;86;21022;-94
2021/10/19 10:08:31;;;;;;;4.55;2.20;;;;;;;9.35;78.64;101593.84;1658780;86;21603;-94
2021/10/19 10:10:58;;;;;;;2.87;2.20;;;;;;;9.29;84.44;101585.09;1658695;86;21465;-95
2021/10/19 10:13:25;;;;;;;2.45;2.10;;;;;;;9.48;87.09;101597.91;1658858;86;21100;-94
2021/10/19 10:15:53;;;;;;;3.40;2.12;;;;;;;9.52;80.68;101596.84;1658823;86;20967;-95
2021/10/19 10:18:33;;;;;;;2.22;1.98;;;;;;;9.49;80.24;101596.17;1637271;86;21665;-91
2021/10/19 10:21:17;;;;;;;3.87;2.00;;;;;;;9.59;90.53;101589.52;1658841;86;21040;-96
2021/10/19 10:24:06;;;;;;;3.02;1.80;;;;;;;9.68;70.68;101586.41;1584779;86;21051;-94
2021/10/19 10:26:35;;;;;;;2.85;1.92;;;;;;;9.66;64.59;101599.95;1650347;85;21496;-94
2021/10/19 10:29:12;;;;;;;1.77;1.62;;;;;;;9.57;68.66;101597.41;1630736;88;21027;-95
2021/10/19 10:31:53;;;;;;;4.90;2.12;;;;;;;9.44;65.39;101593.82;1630289;86;21042;-94
2021/10/19 10:34:31;;;;;;;3.95;1.90;;;;;;;9.31;72.02;101596.25;1630329;87;21445;-94
2021/10/19 10:37:11;;;;;;;4.33;1.85;;;;;;;9.36;83.55;101598.12;1643170;85;21001;-94
2021/10/19 10:39:46;;;;;;;2.77;1.90;;;;;;;9.52;75.97;101598.14;1645998;86;21523;-95
2021/10/19 10:42:15;;;;;;;1.82;1.50;;;;;;;9.53;62.44;101593.32;1665425;84;21527;-93
2021/10/19 10:44:43;;;;;;;3.30;1.90;;;;;;;9.32;62.22;101596.63;1665499;86;20963;-94
2021/10/19 10:47:10;;;;;;;2.10;1.55;;;;;;;9.11;65.96;101598.14;1665595;84;21472;-93
2021/10/19 10:49:38;;;;;;;2.42;1.80;;;;;;;8.89;61.72;101610.15;1666380;85;21487;-93
2021/10/19 10:52:17;;;;;;;4.85;2.10;;;;;;;8.75;68.95;101602.20;1665511;84;21135;-92
2021/10/19 10:54:54;;;;;;;3.50;2.12;;;;;;;8.72;77.06;101600.61;1665654;85;21034;-92
2021/10/19 10:57:21;;;;;;;2.52;1.87;;;;;;;8.94;72.05;101590.39;1646151;86;21038;-91
2021/10/19 10:59:55;;;;;;;3.20;1.62;;;;;;;9.24;76.32;101596.20;1665356;84;21006;-90
2021/10/19 11:02:27;;;;;;;3.47;1.82;;;;;;;9.57;74.29;101601.79;1665338;84;21019;-90
2021/10/19 11:04:57;;;;;;;2.98;1.67;;;;;;;9.78;64.45;101604.48;1665742;84;21050;-90
2021/10/19 11:07:34;;;;;;;2.35;1.70;;;;;;;9.86;60.98;101596.71;1645882;84;21037;-95
2021/10/19 11:10:14;;;;;;;2.37;1.72;;;;;;;9.81;57.43;101603.47;1665631;84;20983;-88
2021/10/19 11:12:44;;;;;;;2.22;1.72;;;;;;;9.59;55.57;101602.52;1665644;85;21077;-90
2021/10/19 11:15:17;;;;;;;2.90;2.08;;;;;;;9.36;59.86;101594.22;1658371;85;21012;-92
2021/10/19 11:17:52;;;;;;;1.57;1.47;;;;;;;9.25;63.08;101589.61;1651214;85;21209;-88
2021/10/19 11:20:24;;;;;;;3.47;1.62;;;;;;;9.23;58.62;101604.91;1660438;84;21105;-86
2021/10/19 11:22:52;;;;;;;3.67;2.17;;;;;;;9.24;63.54;101592.30;1665361;84;21472;-90
2021/10/19 11:25:21;;;;;;;2.40;1.92;;;;;;;9.26;60.68;101601.69;1667219;85;20986;-87